sensor_id;sensor_type;location;lat;lon;timestamp;temperature;humidity
9987;DHT22;5033;46.310;11.214;2023-01-09T00:01:16;2.80;99.90
9987;DHT22;5033;46.310;11.214;2023-01-09T00:03:43;2.80;99.90
9987;DHT22;5033;46.310;11.214;2023-01-09T00:06:10;2.70;99.90
9987;DHT22;5033;46.310;11.214;2023-01-09T00:08:38;2.60;99.90
9987;DHT22;5033;46.310;11.214;2023-01-09T00:11:05;2.50;99.90
9987;DHT22;5033;46.310;11.214;2023-01-09T00:13:33;2.60;99.90
9987;DHT22;5033;46.310;11.214;2023-01-09T00:16:03;2.60;99.90
9987;DHT22;5033;46.310;11.214;2023-01-09T00:18:30;2.70;99.90
9987;DHT22;5033;46.310;11.214;2023-01-09T00:20:58;2.70;99.90
9987;DHT22;5033;46.310;11.214;2023-01-09T00:23:25;2.70;99.90
9987;DHT22;5033;46.310;11.214;2023-01-09T00:26:00;2.70;99.90
9987;DHT22;5033;46.310;11.214;2023-01-09T00:28:27;2.70;99.90
9987;DHT22;5033;46.310;11.214;2023-01-09T00:30:55;2.60;99.90
9987;DHT22;5033;46.310;11.214;2023-01-09T00:33:27;2.50;99.90
9987;DHT22;5033;46.310;11.214;2023-01-09T00:35:54;2.50;99.90
9987;DHT22;5033;46.310;11.214;2023-01-09T00:38:21;2.40;99.90
9987;DHT22;5033;46.310;11.214;2023-01-09T00:40:50;2.40;99.90
9987;DHT22;5033;46.310;11.214;2023-01-09T00:43:17;2.50;99.90
9987;DHT22;5033;46.310;11.214;2023-01-09T00:45:46;2.50;99.90
9987;DHT22;5033;46.310;11.214;2023-01-09T00:48:14;2.60;99.90
9987;DHT22;5033;46.310;11.214;2023-01-09T00:50:51;2.60;99.90
9987;DHT22;5033;46.310;11.214;2023-01-09T00:53:20;2.60;99.90
9987;DHT22;5033;46.310;11.214;2023-01-09T00:55:48;2.50;99.90
9987;DHT22;5033;46.310;11.214;2023-01-09T00:58:15;2.50;99.90
9987;DHT22;5033;46.310;11.214;2023-01-09T01:00:42;2.50;99.90
9987;DHT22;5033;46.310;11.214;2023-01-09T01:03:09;2.60;99.90
9987;DHT22;5033;46.310;11.214;2023-01-09T01:05:36;2.60;99.90
9987;DHT22;5033;46.310;11.214;2023-01-09T01:08:22;2.60;99.90
9987;DHT22;5033;46.310;11.214;2023-01-09T01:10:49;2.50;99.90
9987;DHT22;5033;46.310;11.214;2023-01-09T01:13:16;2.50;99.90
9987;DHT22;5033;46.310;11.214;2023-01-09T01:15:45;2.40;99.90
9987;DHT22;5033;46.310;11.214;2023-01-09T01:18:13;2.50;99.90
9987;DHT22;5033;46.310;11.214;2023-01-09T01:20:41;2.50;99.90
9987;DHT22;5033;46.310;11.214;2023-01-09T01:23:08;2.60;99.90
9987;DHT22;5033;46.310;11.214;2023-01-09T01:25:37;2.60;99.90
9987;DHT22;5033;46.310;11.214;2023-01-09T01:28:05;2.60;99.90
9987;DHT22;5033;46.310;11.214;2023-01-09T01:30:32;2.60;99.90
9987;DHT22;5033;46.310;11.214;2023-01-09T01:32:59;2.60;99.90
9987;DHT22;5033;46.310;11.214;2023-01-09T01:35:26;2.70;99.90
9987;DHT22;5033;46.310;11.214;2023-01-09T01:37:54;2.70;99.90
9987;DHT22;5033;46.310;11.214;2023-01-09T01:40:21;2.70;99.90
9987;DHT22;5033;46.310;11.214;2023-01-09T01:42:51;2.70;99.90
9987;DHT22;5033;46.310;11.214;2023-01-09T01:45:20;2.70;99.90
9987;DHT22;5033;46.310;11.214;2023-01-09T01:47:51;2.70;99.90
9987;DHT22;5033;46.310;11.214;2023-01-09T01:50:25;2.70;99.90
9987;DHT22;5033;46.310;11.214;2023-01-09T01:52:58;2.70;99.90
9987;DHT22;5033;46.310;11.214;2023-01-09T01:55:28;2.70;99.90
9987;DHT22;5033;46.310;11.214;2023-01-09T01:58:01;2.70;99.90
9987;DHT22;5033;46.310;11.214;2023-01-09T02:00:31;2.70;99.90
9987;DHT22;5033;46.310;11.214;2023-01-09T02:03:00;2.70;99.90
9987;DHT22;5033;46.310;11.214;2023-01-09T02:05:28;2.60;99.90
9987;DHT22;5033;46.310;11.214;2023-01-09T02:07:55;2.60;99.90
9987;DHT22;5033;46.310;11.214;2023-01-09T02:10:23;2.60;99.90
9987;DHT22;5033;46.310;11.214;2023-01-09T02:12:50;2.50;99.90
9987;DHT22;5033;46.310;11.214;2023-01-09T02:15:19;2.50;99.90
9987;DHT22;5033;46.310;11.214;2023-01-09T02:18:09;2.50;99.90
9987;DHT22;5033;46.310;11.214;2023-01-09T02:20:40;2.50;99.90
9987;DHT22;5033;46.310;11.214;2023-01-09T02:29:45;2.50;99.90
9987;DHT22;5033;46.310;11.214;2023-01-09T02:32:31;2.60;99.90
9987;DHT22;5033;46.310;11.214;2023-01-09T02:35:09;2.60;99.90
9987;DHT22;5033;46.310;11.214;2023-01-09T02:37:44;2.60;99.90
9987;DHT22;5033;46.310;11.214;2023-01-09T02:40:20;2.50;99.90
9987;DHT22;5033;46.310;11.214;2023-01-09T02:42:49;2.50;99.90
9987;DHT22;5033;46.310;11.214;2023-01-09T02:45:16;2.50;99.90
9987;DHT22;5033;46.310;11.214;2023-01-09T02:47:45;2.40;99.90
9987;DHT22;5033;46.310;11.214;2023-01-09T02:50:16;2.40;99.90
9987;DHT22;5033;46.310;11.214;2023-01-09T02:56:03;2.50;99.90
9987;DHT22;5033;46.310;11.214;2023-01-09T02:58:47;2.40;99.90
9987;DHT22;5033;46.310;11.214;2023-01-09T03:01:24;2.50;99.90
9987;DHT22;5033;46.310;11.214;2023-01-09T03:04:01;2.50;99.90
9987;DHT22;5033;46.310;11.214;2023-01-09T03:06:33;2.50;99.90
9987;DHT22;5033;46.310;11.214;2023-01-09T03:09:06;2.60;99.90
9987;DHT22;5033;46.310;11.214;2023-01-09T03:11:39;2.60;99.90
9987;DHT22;5033;46.310;11.214;2023-01-09T03:14:12;2.60;99.90
9987;DHT22;5033;46.310;11.214;2023-01-09T03:16:44;2.50;99.90
9987;DHT22;5033;46.310;11.214;2023-01-09T03:19:17;2.50;99.90
9987;DHT22;5033;46.310;11.214;2023-01-09T03:21:46;2.40;99.90
9987;DHT22;5033;46.310;11.214;2023-01-09T03:24:14;2.50;99.90
9987;DHT22;5033;46.310;11.214;2023-01-09T03:26:41;2.50;99.90
9987;DHT22;5033;46.310;11.214;2023-01-09T03:29:09;2.50;99.90
9987;DHT22;5033;46.310;11.214;2023-01-09T03:31:36;2.60;99.90
9987;DHT22;5033;46.310;11.214;2023-01-09T03:34:04;2.60;99.90
9987;DHT22;5033;46.310;11.214;2023-01-09T03:36:32;2.60;99.90
9987;DHT22;5033;46.310;11.214;2023-01-09T03:38:59;2.60;99.90
9987;DHT22;5033;46.310;11.214;2023-01-09T03:41:27;2.60;99.90
9987;DHT22;5033;46.310;11.214;2023-01-09T03:43:54;2.60;99.90
9987;DHT22;5033;46.310;11.214;2023-01-09T03:46:21;2.50;99.90
9987;DHT22;5033;46.310;11.214;2023-01-09T03:48:49;2.50;99.90
9987;DHT22;5033;46.310;11.214;2023-01-09T03:51:16;2.40;99.90
9987;DHT22;5033;46.310;11.214;2023-01-09T03:53:45;2.40;99.90
9987;DHT22;5033;46.310;11.214;2023-01-09T03:56:12;2.50;99.90
9987;DHT22;5033;46.310;11.214;2023-01-09T03:58:40;2.50;99.90
9987;DHT22;5033;46.310;11.214;2023-01-09T04:01:07;2.60;99.90
9987;DHT22;5033;46.310;11.214;2023-01-09T04:03:37;2.60;99.90
9987;DHT22;5033;46.310;11.214;2023-01-09T04:06:05;2.70;99.90
9987;DHT22;5033;46.310;11.214;2023-01-09T04:08:33;2.70;99.90
9987;DHT22;5033;46.310;11.214;2023-01-09T04:11:02;2.70;99.90
9987;DHT22;5033;46.310;11.214;2023-01-09T04:13:30;2.70;99.90
9987;DHT22;5033;46.310;11.214;2023-01-09T04:15:57;2.70;99.90
9987;DHT22;5033;46.310;11.214;2023-01-09T04:18:24;2.70;99.90
9987;DHT22;5033;46.310;11.214;2023-01-09T04:20:52;2.70;99.90
9987;DHT22;5033;46.310;11.214;2023-01-09T04:23:19;2.70;99.90
9987;DHT22;5033;46.310;11.214;2023-01-09T04:25:46;2.70;99.90
9987;DHT22;5033;46.310;11.214;2023-01-09T04:28:15;2.70;99.90
9987;DHT22;5033;46.310;11.214;2023-01-09T04:30:42;2.70;99.90
9987;DHT22;5033;46.310;11.214;2023-01-09T04:33:09;2.80;99.90
9987;DHT22;5033;46.310;11.214;2023-01-09T04:35:37;2.80;99.90
9987;DHT22;5033;46.310;11.214;2023-01-09T04:38:04;2.80;99.90
9987;DHT22;5033;46.310;11.214;2023-01-09T04:40:31;2.70;99.90
9987;DHT22;5033;46.310;11.214;2023-01-09T04:42:59;2.70;99.90
9987;DHT22;5033;46.310;11.214;2023-01-09T04:45:28;2.80;99.90
9987;DHT22;5033;46.310;11.214;2023-01-09T04:47:55;2.80;99.90
9987;DHT22;5033;46.310;11.214;2023-01-09T04:50:22;2.70;99.90
9987;DHT22;5033;46.310;11.214;2023-01-09T04:52:50;2.70;99.90
9987;DHT22;5033;46.310;11.214;2023-01-09T04:55:18;2.70;99.90
9987;DHT22;5033;46.310;11.214;2023-01-09T04:57:45;2.80;99.90
9987;DHT22;5033;46.310;11.214;2023-01-09T05:00:13;2.70;99.90
9987;DHT22;5033;46.310;11.214;2023-01-09T05:02:42;2.70;99.90
9987;DHT22;5033;46.310;11.214;2023-01-09T05:05:10;2.60;99.90
9987;DHT22;5033;46.310;11.214;2023-01-09T05:07:37;2.50;99.90
9987;DHT22;5033;46.310;11.214;2023-01-09T05:10:05;2.50;99.90
9987;DHT22;5033;46.310;11.214;2023-01-09T05:12:33;2.50;99.90
9987;DHT22;5033;46.310;11.214;2023-01-09T05:15:01;2.40;99.90
9987;DHT22;5033;46.310;11.214;2023-01-09T05:17:28;2.30;99.90
9987;DHT22;5033;46.310;11.214;2023-01-09T05:19:57;2.30;99.90
9987;DHT22;5033;46.310;11.214;2023-01-09T05:22:25;2.40;99.90
9987;DHT22;5033;46.310;11.214;2023-01-09T05:24:52;2.40;99.90
9987;DHT22;5033;46.310;11.214;2023-01-09T05:27:20;2.50;99.90
9987;DHT22;5033;46.310;11.214;2023-01-09T05:29:47;2.50;99.90
9987;DHT22;5033;46.310;11.214;2023-01-09T05:32:14;2.50;99.90
9987;DHT22;5033;46.310;11.214;2023-01-09T05:34:41;2.60;99.90
9987;DHT22;5033;46.310;11.214;2023-01-09T05:37:10;2.70;99.90
9987;DHT22;5033;46.310;11.214;2023-01-09T05:39:37;2.70;99.90
9987;DHT22;5033;46.310;11.214;2023-01-09T05:42:04;2.70;99.90
9987;DHT22;5033;46.310;11.214;2023-01-09T05:44:32;2.80;99.90
9987;DHT22;5033;46.310;11.214;2023-01-09T05:46:59;2.80;99.90
9987;DHT22;5033;46.310;11.214;2023-01-09T05:49:26;2.80;99.90
9987;DHT22;5033;46.310;11.214;2023-01-09T05:51:54;2.80;99.90
9987;DHT22;5033;46.310;11.214;2023-01-09T05:54:23;2.80;99.90
9987;DHT22;5033;46.310;11.214;2023-01-09T05:56:50;2.70;99.90
9987;DHT22;5033;46.310;11.214;2023-01-09T05:59:17;2.70;99.90
9987;DHT22;5033;46.310;11.214;2023-01-09T06:01:45;2.60;99.90
9987;DHT22;5033;46.310;11.214;2023-01-09T06:04:13;2.60;99.90
9987;DHT22;5033;46.310;11.214;2023-01-09T06:06:40;2.50;99.90
9987;DHT22;5033;46.310;11.214;2023-01-09T06:09:07;2.50;99.90
9987;DHT22;5033;46.310;11.214;2023-01-09T06:11:37;2.50;99.90
9987;DHT22;5033;46.310;11.214;2023-01-09T06:14:05;2.50;99.90
9987;DHT22;5033;46.310;11.214;2023-01-09T06:16:33;2.60;99.90
9987;DHT22;5033;46.310;11.214;2023-01-09T06:19:00;2.60;99.90
9987;DHT22;5033;46.310;11.214;2023-01-09T06:21:27;2.60;99.90
9987;DHT22;5033;46.310;11.214;2023-01-09T06:23:57;2.70;99.90
9987;DHT22;5033;46.310;11.214;2023-01-09T06:26:25;2.70;99.90
9987;DHT22;5033;46.310;11.214;2023-01-09T06:28:54;2.70;99.90
9987;DHT22;5033;46.310;11.214;2023-01-09T06:31:22;2.70;99.90
9987;DHT22;5033;46.310;11.214;2023-01-09T06:33:49;2.80;99.90
9987;DHT22;5033;46.310;11.214;2023-01-09T06:36:17;2.80;99.90
9987;DHT22;5033;46.310;11.214;2023-01-09T06:38:44;2.90;99.90
9987;DHT22;5033;46.310;11.214;2023-01-09T06:41:11;2.90;99.90
9987;DHT22;5033;46.310;11.214;2023-01-09T06:43:39;2.90;99.90
9987;DHT22;5033;46.310;11.214;2023-01-09T06:46:08;2.70;99.90
9987;DHT22;5033;46.310;11.214;2023-01-09T06:48:35;2.70;99.90
9987;DHT22;5033;46.310;11.214;2023-01-09T06:51:03;2.70;99.90
9987;DHT22;5033;46.310;11.214;2023-01-09T06:53:30;2.70;99.90
9987;DHT22;5033;46.310;11.214;2023-01-09T06:55:59;2.70;99.90
9987;DHT22;5033;46.310;11.214;2023-01-09T06:58:27;2.70;99.90
9987;DHT22;5033;46.310;11.214;2023-01-09T07:00:55;2.80;99.90
9987;DHT22;5033;46.310;11.214;2023-01-09T07:03:23;2.90;99.90
9987;DHT22;5033;46.310;11.214;2023-01-09T07:05:51;2.90;99.90
9987;DHT22;5033;46.310;11.214;2023-01-09T07:08:18;2.90;99.90
9987;DHT22;5033;46.310;11.214;2023-01-09T07:10:46;2.90;99.90
9987;DHT22;5033;46.310;11.214;2023-01-09T07:13:13;2.90;99.90
9987;DHT22;5033;46.310;11.214;2023-01-09T07:15:40;2.90;99.90
9987;DHT22;5033;46.310;11.214;2023-01-09T07:18:07;2.80;99.90
9987;DHT22;5033;46.310;11.214;2023-01-09T07:20:37;2.80;99.90
9987;DHT22;5033;46.310;11.214;2023-01-09T07:23:05;2.80;99.90
9987;DHT22;5033;46.310;11.214;2023-01-09T07:25:33;2.90;99.90
9987;DHT22;5033;46.310;11.214;2023-01-09T07:28:00;2.80;99.90
9987;DHT22;5033;46.310;11.214;2023-01-09T07:30:28;2.90;99.90
9987;DHT22;5033;46.310;11.214;2023-01-09T07:32:55;2.90;99.90
9987;DHT22;5033;46.310;11.214;2023-01-09T07:35:22;2.90;99.90
9987;DHT22;5033;46.310;11.214;2023-01-09T07:37:51;2.90;99.90
9987;DHT22;5033;46.310;11.214;2023-01-09T07:40:18;2.90;99.90
9987;DHT22;5033;46.310;11.214;2023-01-09T07:42:45;2.90;99.90
9987;DHT22;5033;46.310;11.214;2023-01-09T07:45:13;2.80;99.90
9987;DHT22;5033;46.310;11.214;2023-01-09T07:47:40;2.80;99.90
9987;DHT22;5033;46.310;11.214;2023-01-09T07:50:09;2.90;99.90
9987;DHT22;5033;46.310;11.214;2023-01-09T07:52:36;2.90;99.90
9987;DHT22;5033;46.310;11.214;2023-01-09T07:55:08;3.00;99.90
9987;DHT22;5033;46.310;11.214;2023-01-09T07:57:35;3.00;99.90
9987;DHT22;5033;46.310;11.214;2023-01-09T08:00:05;3.20;99.90
9987;DHT22;5033;46.310;11.214;2023-01-09T08:02:35;3.20;99.90
9987;DHT22;5033;46.310;11.214;2023-01-09T08:05:03;3.30;99.90
9987;DHT22;5033;46.310;11.214;2023-01-09T08:07:30;3.20;99.90
9987;DHT22;5033;46.310;11.214;2023-01-09T08:09:58;3.20;99.90
9987;DHT22;5033;46.310;11.214;2023-01-09T08:12:26;3.10;99.90
9987;DHT22;5033;46.310;11.214;2023-01-09T08:14:54;3.10;99.90
9987;DHT22;5033;46.310;11.214;2023-01-09T08:17:21;3.20;99.90
9987;DHT22;5033;46.310;11.214;2023-01-09T08:19:48;3.20;99.90
9987;DHT22;5033;46.310;11.214;2023-01-09T08:22:15;3.40;99.90
9987;DHT22;5033;46.310;11.214;2023-01-09T08:24:44;3.40;99.90
9987;DHT22;5033;46.310;11.214;2023-01-09T08:27:11;3.50;99.90
9987;DHT22;5033;46.310;11.214;2023-01-09T08:29:40;3.50;99.90
9987;DHT22;5033;46.310;11.214;2023-01-09T08:32:07;3.50;99.90
9987;DHT22;5033;46.310;11.214;2023-01-09T08:34:35;3.80;99.90
9987;DHT22;5033;46.310;11.214;2023-01-09T08:37:03;4.00;99.90
9987;DHT22;5033;46.310;11.214;2023-01-09T08:39:30;3.90;99.90
9987;DHT22;5033;46.310;11.214;2023-01-09T08:41:57;3.80;99.90
9987;DHT22;5033;46.310;11.214;2023-01-09T08:44:44;3.70;99.90
9987;DHT22;5033;46.310;11.214;2023-01-09T08:47:28;3.50;99.90
9987;DHT22;5033;46.310;11.214;2023-01-09T08:49:58;3.40;99.90
9987;DHT22;5033;46.310;11.214;2023-01-09T08:52:25;3.40;99.90
9987;DHT22;5033;46.310;11.214;2023-01-09T08:54:55;3.40;99.90
9987;DHT22;5033;46.310;11.214;2023-01-09T08:57:23;3.50;99.90
9987;DHT22;5033;46.310;11.214;2023-01-09T08:59:52;3.50;99.90
9987;DHT22;5033;46.310;11.214;2023-01-09T09:02:19;3.60;99.90
9987;DHT22;5033;46.310;11.214;2023-01-09T09:04:47;3.60;99.90
9987;DHT22;5033;46.310;11.214;2023-01-09T09:07:17;3.60;99.90
9987;DHT22;5033;46.310;11.214;2023-01-09T09:09:51;3.60;99.90
9987;DHT22;5033;46.310;11.214;2023-01-09T09:12:19;3.60;99.90
9987;DHT22;5033;46.310;11.214;2023-01-09T09:14:47;3.50;99.90
9987;DHT22;5033;46.310;11.214;2023-01-09T09:17:33;3.40;99.90
9987;DHT22;5033;46.310;11.214;2023-01-09T09:20:03;3.40;99.90
9987;DHT22;5033;46.310;11.214;2023-01-09T09:22:30;3.50;99.90
9987;DHT22;5033;46.310;11.214;2023-01-09T09:24:58;3.60;99.90
9987;DHT22;5033;46.310;11.214;2023-01-09T09:27:25;3.70;99.90
9987;DHT22;5033;46.310;11.214;2023-01-09T09:29:53;3.80;99.90
9987;DHT22;5033;46.310;11.214;2023-01-09T09:32:21;3.80;99.90
9987;DHT22;5033;46.310;11.214;2023-01-09T09:34:49;3.80;99.90
9987;DHT22;5033;46.310;11.214;2023-01-09T09:37:17;3.90;99.90
9987;DHT22;5033;46.310;11.214;2023-01-09T09:39:44;3.80;99.90
9987;DHT22;5033;46.310;11.214;2023-01-09T09:42:25;3.70;99.90
9987;DHT22;5033;46.310;11.214;2023-01-09T09:45:25;3.70;99.90
9987;DHT22;5033;46.310;11.214;2023-01-09T09:48:02;3.60;99.90
9987;DHT22;5033;46.310;11.214;2023-01-09T09:50:50;3.50;99.90
9987;DHT22;5033;46.310;11.214;2023-01-09T09:53:21;3.40;99.90
9987;DHT22;5033;46.310;11.214;2023-01-09T09:55:52;3.40;99.90
9987;DHT22;5033;46.310;11.214;2023-01-09T09:58:25;3.40;99.90
9987;DHT22;5033;46.310;11.214;2023-01-09T10:00:55;3.50;99.90
9987;DHT22;5033;46.310;11.214;2023-01-09T10:03:27;3.60;99.90
9987;DHT22;5033;46.310;11.214;2023-01-09T10:06:03;3.80;99.90
9987;DHT22;5033;46.310;11.214;2023-01-09T10:08:38;3.90;99.90
9987;DHT22;5033;46.310;11.214;2023-01-09T10:11:14;3.90;99.90
9987;DHT22;5033;46.310;11.214;2023-01-09T10:13:43;4.00;99.90
9987;DHT22;5033;46.310;11.214;2023-01-09T10:16:36;4.00;99.90
9987;DHT22;5033;46.310;11.214;2023-01-09T10:19:24;4.10;99.90
9987;DHT22;5033;46.310;11.214;2023-01-09T10:22:03;4.20;99.90
9987;DHT22;5033;46.310;11.214;2023-01-09T10:24:46;4.20;99.90
9987;DHT22;5033;46.310;11.214;2023-01-09T10:27:22;4.30;99.90
9987;DHT22;5033;46.310;11.214;2023-01-09T10:30:00;4.30;99.90
9987;DHT22;5033;46.310;11.214;2023-01-09T10:32:43;4.40;99.90
9987;DHT22;5033;46.310;11.214;2023-01-09T10:38:18;4.40;99.90
9987;DHT22;5033;46.310;11.214;2023-01-09T10:40:50;4.00;99.90
9987;DHT22;5033;46.310;11.214;2023-01-09T10:43:27;3.80;99.90
9987;DHT22;5033;46.310;11.214;2023-01-09T10:45:58;3.60;99.90
9987;DHT22;5033;46.310;11.214;2023-01-09T10:48:31;3.60;99.90
9987;DHT22;5033;46.310;11.214;2023-01-09T10:50:59;3.50;99.90
9987;DHT22;5033;46.310;11.214;2023-01-09T10:53:31;3.50;99.90
9987;DHT22;5033;46.310;11.214;2023-01-09T10:56:04;3.50;99.90
9987;DHT22;5033;46.310;11.214;2023-01-09T10:58:33;3.60;99.90
9987;DHT22;5033;46.310;11.214;2023-01-09T11:01:01;3.70;99.90
9987;DHT22;5033;46.310;11.214;2023-01-09T11:03:29;3.70;99.90
9987;DHT22;5033;46.310;11.214;2023-01-09T11:05:58;3.70;99.90
9987;DHT22;5033;46.310;11.214;2023-01-09T11:08:30;3.70;99.90
9987;DHT22;5033;46.310;11.214;2023-01-09T11:11:01;3.70;99.90
9987;DHT22;5033;46.310;11.214;2023-01-09T11:13:30;3.80;99.90
9987;DHT22;5033;46.310;11.214;2023-01-09T11:16:06;3.80;99.90
9987;DHT22;5033;46.310;11.214;2023-01-09T11:18:37;3.90;99.90
9987;DHT22;5033;46.310;11.214;2023-01-09T11:21:13;4.00;99.90
9987;DHT22;5033;46.310;11.214;2023-01-09T11:23:42;4.20;99.90
9987;DHT22;5033;46.310;11.214;2023-01-09T11:26:21;4.20;99.90
9987;DHT22;5033;46.310;11.214;2023-01-09T11:29:11;4.20;99.90
9987;DHT22;5033;46.310;11.214;2023-01-09T11:31:39;4.20;99.90
9987;DHT22;5033;46.310;11.214;2023-01-09T11:34:14;4.20;99.90
9987;DHT22;5033;46.310;11.214;2023-01-09T11:36:42;4.20;99.90
9987;DHT22;5033;46.310;11.214;2023-01-09T11:39:20;4.30;99.90
9987;DHT22;5033;46.310;11.214;2023-01-09T11:41:52;4.30;99.90
9987;DHT22;5033;46.310;11.214;2023-01-09T11:44:21;4.30;99.90
9987;DHT22;5033;46.310;11.214;2023-01-09T11:46:49;4.40;99.90
9987;DHT22;5033;46.310;11.214;2023-01-09T11:49:22;4.40;99.90
9987;DHT22;5033;46.310;11.214;2023-01-09T11:55:17;4.50;99.90
9987;DHT22;5033;46.310;11.214;2023-01-09T11:57:45;4.60;99.90
9987;DHT22;5033;46.310;11.214;2023-01-09T12:00:23;4.60;99.90
9987;DHT22;5033;46.310;11.214;2023-01-09T12:03:03;4.70;99.90
9987;DHT22;5033;46.310;11.214;2023-01-09T12:05:43;4.80;99.90
9987;DHT22;5033;46.310;11.214;2023-01-09T12:08:23;4.80;99.90
9987;DHT22;5033;46.310;11.214;2023-01-09T12:14:12;4.90;99.90
9987;DHT22;5033;46.310;11.214;2023-01-09T12:16:50;4.80;99.90
9987;DHT22;5033;46.310;11.214;2023-01-09T12:19:36;4.80;99.90
9987;DHT22;5033;46.310;11.214;2023-01-09T12:22:16;4.80;99.90
9987;DHT22;5033;46.310;11.214;2023-01-09T12:24:58;4.60;99.90
9987;DHT22;5033;46.310;11.214;2023-01-09T12:27:42;4.60;99.90
9987;DHT22;5033;46.310;11.214;2023-01-09T12:30:25;4.60;99.90
9987;DHT22;5033;46.310;11.214;2023-01-09T12:33:18;4.70;99.90
9987;DHT22;5033;46.310;11.214;2023-01-09T12:35:53;4.70;99.90
9987;DHT22;5033;46.310;11.214;2023-01-09T12:38:36;4.80;99.90
9987;DHT22;5033;46.310;11.214;2023-01-09T12:44:43;4.90;99.90
9987;DHT22;5033;46.310;11.214;2023-01-09T12:50:41;5.20;99.90
9987;DHT22;5033;46.310;11.214;2023-01-09T12:53:18;5.20;99.90
9987;DHT22;5033;46.310;11.214;2023-01-09T12:55:54;5.20;99.90
9987;DHT22;5033;46.310;11.214;2023-01-09T12:58:35;5.20;99.90
9987;DHT22;5033;46.310;11.214;2023-01-09T13:01:12;5.30;99.90
9987;DHT22;5033;46.310;11.214;2023-01-09T13:03:45;5.40;99.90
9987;DHT22;5033;46.310;11.214;2023-01-09T13:06:16;5.40;99.90
9987;DHT22;5033;46.310;11.214;2023-01-09T13:08:47;5.50;99.90
9987;DHT22;5033;46.310;11.214;2023-01-09T13:11:21;5.60;99.90
9987;DHT22;5033;46.310;11.214;2023-01-09T13:13:53;5.70;99.90
9987;DHT22;5033;46.310;11.214;2023-01-09T13:16:25;5.80;99.90
9987;DHT22;5033;46.310;11.214;2023-01-09T13:18:58;5.70;99.90
9987;DHT22;5033;46.310;11.214;2023-01-09T13:21:26;5.60;99.90
9987;DHT22;5033;46.310;11.214;2023-01-09T13:23:58;5.60;99.90
9987;DHT22;5033;46.310;11.214;2023-01-09T13:26:30;5.50;99.90
9987;DHT22;5033;46.310;11.214;2023-01-09T13:29:01;5.50;99.90
9987;DHT22;5033;46.310;11.214;2023-01-09T13:32:00;5.50;99.90
9987;DHT22;5033;46.310;11.214;2023-01-09T13:34:31;5.50;99.90
9987;DHT22;5033;46.310;11.214;2023-01-09T13:37:00;5.50;99.90
9987;DHT22;5033;46.310;11.214;2023-01-09T13:39:29;5.60;99.90
9987;DHT22;5033;46.310;11.214;2023-01-09T13:41:59;5.60;99.90
9987;DHT22;5033;46.310;11.214;2023-01-09T13:44:45;5.70;99.90
9987;DHT22;5033;46.310;11.214;2023-01-09T13:47:17;5.70;99.90
9987;DHT22;5033;46.310;11.214;2023-01-09T13:50:00;5.70;99.90
9987;DHT22;5033;46.310;11.214;2023-01-09T13:52:34;5.70;99.90
9987;DHT22;5033;46.310;11.214;2023-01-09T13:55:25;5.70;99.90
9987;DHT22;5033;46.310;11.214;2023-01-09T13:58:21;5.80;99.90
9987;DHT22;5033;46.310;11.214;2023-01-09T14:03:32;5.90;99.90
9987;DHT22;5033;46.310;11.214;2023-01-09T14:06:16;6.00;99.90
9987;DHT22;5033;46.310;11.214;2023-01-09T14:08:45;6.00;99.90
9987;DHT22;5033;46.310;11.214;2023-01-09T14:11:21;5.90;99.90
9987;DHT22;5033;46.310;11.214;2023-01-09T14:14:05;5.80;99.90
9987;DHT22;5033;46.310;11.214;2023-01-09T14:16:34;5.80;99.90
9987;DHT22;5033;46.310;11.214;2023-01-09T14:19:20;5.80;99.90
9987;DHT22;5033;46.310;11.214;2023-01-09T14:21:53;5.90;99.90
9987;DHT22;5033;46.310;11.214;2023-01-09T14:24:25;5.90;99.90
9987;DHT22;5033;46.310;11.214;2023-01-09T14:26:55;5.90;99.90
9987;DHT22;5033;46.310;11.214;2023-01-09T14:29:40;5.90;99.90
9987;DHT22;5033;46.310;11.214;2023-01-09T14:32:40;5.90;99.90
9987;DHT22;5033;46.310;11.214;2023-01-09T14:35:26;5.90;99.90
9987;DHT22;5033;46.310;11.214;2023-01-09T14:38:05;5.90;99.90
9987;DHT22;5033;46.310;11.214;2023-01-09T14:40:35;5.90;99.90
9987;DHT22;5033;46.310;11.214;2023-01-09T14:43:11;5.90;99.90
9987;DHT22;5033;46.310;11.214;2023-01-09T14:45:43;5.80;99.90
9987;DHT22;5033;46.310;11.214;2023-01-09T14:48:15;5.80;99.90
9987;DHT22;5033;46.310;11.214;2023-01-09T14:50:48;5.80;99.90
9987;DHT22;5033;46.310;11.214;2023-01-09T14:53:22;5.80;99.90
9987;DHT22;5033;46.310;11.214;2023-01-09T14:55:51;5.80;99.90
9987;DHT22;5033;46.310;11.214;2023-01-09T14:58:21;5.80;99.90
9987;DHT22;5033;46.310;11.214;2023-01-09T15:01:00;5.70;99.90
9987;DHT22;5033;46.310;11.214;2023-01-09T15:03:32;5.60;99.90
9987;DHT22;5033;46.310;11.214;2023-01-09T15:06:03;5.50;99.90
9987;DHT22;5033;46.310;11.214;2023-01-09T15:08:31;5.40;99.90
9987;DHT22;5033;46.310;11.214;2023-01-09T15:10:59;5.40;99.90
9987;DHT22;5033;46.310;11.214;2023-01-09T15:13:33;5.50;99.90
9987;DHT22;5033;46.310;11.214;2023-01-09T15:16:03;5.50;99.90
9987;DHT22;5033;46.310;11.214;2023-01-09T15:18:38;5.50;99.90
9987;DHT22;5033;46.310;11.214;2023-01-09T15:21:16;5.50;99.90
9987;DHT22;5033;46.310;11.214;2023-01-09T15:23:45;5.40;99.90
9987;DHT22;5033;46.310;11.214;2023-01-09T15:26:22;5.40;99.90
9987;DHT22;5033;46.310;11.214;2023-01-09T15:28:53;5.30;99.90
9987;DHT22;5033;46.310;11.214;2023-01-09T15:31:30;5.20;99.90
9987;DHT22;5033;46.310;11.214;2023-01-09T15:34:02;5.20;99.90
9987;DHT22;5033;46.310;11.214;2023-01-09T15:36:32;5.20;99.90
9987;DHT22;5033;46.310;11.214;2023-01-09T15:39:05;5.20;99.90
9987;DHT22;5033;46.310;11.214;2023-01-09T15:41:33;5.20;99.90
9987;DHT22;5033;46.310;11.214;2023-01-09T15:44:21;5.20;99.90
9987;DHT22;5033;46.310;11.214;2023-01-09T15:46:50;5.10;99.90
9987;DHT22;5033;46.310;11.214;2023-01-09T15:49:18;5.10;99.90
9987;DHT22;5033;46.310;11.214;2023-01-09T15:51:50;5.10;99.90
9987;DHT22;5033;46.310;11.214;2023-01-09T15:54:22;5.10;99.90
9987;DHT22;5033;46.310;11.214;2023-01-09T15:56:51;5.10;99.90
9987;DHT22;5033;46.310;11.214;2023-01-09T15:59:23;5.10;99.90
9987;DHT22;5033;46.310;11.214;2023-01-09T16:01:56;5.10;99.90
9987;DHT22;5033;46.310;11.214;2023-01-09T16:04:46;5.10;99.90
9987;DHT22;5033;46.310;11.214;2023-01-09T16:07:19;5.10;99.90
9987;DHT22;5033;46.310;11.214;2023-01-09T16:09:48;5.10;99.90
9987;DHT22;5033;46.310;11.214;2023-01-09T16:12:19;5.00;99.90
9987;DHT22;5033;46.310;11.214;2023-01-09T16:14:50;5.00;99.90
9987;DHT22;5033;46.310;11.214;2023-01-09T16:17:19;4.90;99.90
9987;DHT22;5033;46.310;11.214;2023-01-09T16:19:52;4.90;99.90
9987;DHT22;5033;46.310;11.214;2023-01-09T16:22:23;4.90;99.90
9987;DHT22;5033;46.310;11.214;2023-01-09T16:24:54;4.90;99.90
9987;DHT22;5033;46.310;11.214;2023-01-09T16:27:23;4.90;99.90
9987;DHT22;5033;46.310;11.214;2023-01-09T16:29:52;4.90;99.90
9987;DHT22;5033;46.310;11.214;2023-01-09T16:32:23;4.90;99.90
9987;DHT22;5033;46.310;11.214;2023-01-09T16:34:52;4.90;99.90
9987;DHT22;5033;46.310;11.214;2023-01-09T16:37:23;4.90;99.90
9987;DHT22;5033;46.310;11.214;2023-01-09T16:40:25;4.80;99.90
9987;DHT22;5033;46.310;11.214;2023-01-09T16:42:56;4.80;99.90
9987;DHT22;5033;46.310;11.214;2023-01-09T16:45:27;4.80;99.90
9987;DHT22;5033;46.310;11.214;2023-01-09T16:47:54;4.70;99.90
9987;DHT22;5033;46.310;11.214;2023-01-09T16:50:23;4.80;99.90
9987;DHT22;5033;46.310;11.214;2023-01-09T16:52:52;4.80;99.90
9987;DHT22;5033;46.310;11.214;2023-01-09T16:55:21;4.80;99.90
9987;DHT22;5033;46.310;11.214;2023-01-09T16:57:48;4.70;99.90